createdAt,value
2024-04-30T00:00:27.004Z,97452.25
2024-04-30T00:02:53.532Z,97447.06
2024-04-30T00:05:20.026Z,97450.91
2024-04-30T00:07:46.551Z,97451.16
2024-04-30T00:10:13.089Z,97457.25
2024-04-30T00:12:40.430Z,97444.16
2024-04-30T00:15:07.102Z,97441.88
2024-04-30T00:17:33.780Z,97448.31
2024-04-30T00:20:00.583Z,97446.06
2024-04-30T00:22:27.541Z,97443.56
2024-04-30T00:24:54.057Z,97444.63
2024-04-30T00:27:20.515Z,97452.41
2024-04-30T00:29:47.393Z,97444.06
2024-04-30T00:32:13.897Z,97438.03
2024-04-30T00:34:41.952Z,97436.56
2024-04-30T00:37:08.494Z,97437.59
2024-04-30T00:39:34.936Z,97438.09
2024-04-30T00:42:01.395Z,97444.81
2024-04-30T00:44:27.836Z,97442.22
2024-04-30T00:46:54.393Z,97438.19
2024-04-30T00:49:20.915Z,97431.28
2024-04-30T00:51:47.957Z,97425.81
2024-04-30T00:54:16.102Z,97425.81
2024-04-30T00:56:43.390Z,97432.63
2024-04-30T00:59:09.846Z,97437.81
2024-04-30T01:01:36.981Z,97437.81
2024-04-30T01:04:03.597Z,97432.31
2024-04-30T01:06:30.134Z,97429.16
2024-04-30T01:08:56.605Z,97421.19
2024-04-30T01:11:23.169Z,97430.03
2024-04-30T01:13:49.667Z,97428.09
2024-04-30T01:16:16.205Z,97432.16
2024-04-30T01:18:42.688Z,97429.00
2024-04-30T01:21:09.138Z,97430.31
2024-04-30T01:23:35.585Z,97424.16
2024-04-30T01:26:02.067Z,97419.75
2024-04-30T01:28:28.559Z,97421.56
2024-04-30T01:30:55.049Z,97416.69
2024-04-30T01:33:21.583Z,97416.19
2024-04-30T01:35:48.130Z,97408.22
2024-04-30T01:38:15.232Z,97413.59
2024-04-30T01:40:41.704Z,97406.88
2024-04-30T01:43:08.243Z,97414.34
2024-04-30T01:45:34.775Z,97408.22
2024-04-30T01:48:01.388Z,97406.38
2024-04-30T01:50:27.885Z,97409.28
2024-04-30T01:52:54.360Z,97400.50
2024-04-30T01:55:20.820Z,97401.28
2024-04-30T01:57:47.270Z,97406.47
2024-04-30T02:00:14.052Z,97402.53
2024-04-30T02:02:40.570Z,97397.53
2024-04-30T02:05:13.401Z,97395.16
2024-04-30T02:07:43.467Z,97395.91
2024-04-30T02:10:10.202Z,97397.91
2024-04-30T02:12:36.684Z,97395.16
2024-04-30T02:15:03.269Z,97397.75
2024-04-30T02:17:30.111Z,97390.72
2024-04-30T02:19:56.695Z,97387.63
2024-04-30T02:22:23.176Z,97384.94
2024-04-30T02:24:49.695Z,97389.56
2024-04-30T02:27:16.159Z,97383.44
2024-04-30T02:29:42.611Z,97391.00
2024-04-30T02:32:27.730Z,97380.63
2024-04-30T02:34:54.291Z,97377.47
2024-04-30T02:37:21.001Z,97377.94
2024-04-30T02:39:47.496Z,97368.91
2024-04-30T02:42:13.943Z,97362.38
2024-04-30T02:44:40.402Z,97355.47
2024-04-30T02:47:07.019Z,97359.09
2024-04-30T02:49:33.576Z,97364.59
2024-04-30T02:52:00.106Z,97360.44
2024-04-30T02:54:26.601Z,97359.66
2024-04-30T02:56:53.073Z,97356.34
2024-04-30T02:59:19.520Z,97352.56
2024-04-30T03:01:46.179Z,97357.00
2024-04-30T03:04:12.822Z,97342.47
2024-04-30T03:06:39.634Z,97344.72
2024-04-30T03:09:06.146Z,97338.75
2024-04-30T03:11:32.657Z,97339.03
2024-04-30T03:13:59.179Z,97340.56
2024-04-30T03:16:25.662Z,97332.78
2024-04-30T03:18:52.194Z,97324.53
2024-04-30T03:21:18.680Z,97324.69
2024-04-30T03:23:45.143Z,97321.25
2024-04-30T03:26:11.604Z,97313.69
2024-04-30T03:28:38.169Z,97319.16
2024-04-30T03:31:10.949Z,97309.91
2024-04-30T03:33:37.559Z,97318.47
2024-04-30T03:36:04.395Z,97312.50
2024-04-30T03:38:30.848Z,97313.09
2024-04-30T03:40:57.311Z,97312.44
2024-04-30T03:43:23.848Z,97313.47
2024-04-30T03:45:50.305Z,97311.19
2024-04-30T03:48:16.829Z,97304.56
2024-04-30T03:50:44.280Z,97304.66
2024-04-30T03:53:10.766Z,97307.63
2024-04-30T03:55:37.295Z,97308.19
2024-04-30T03:58:03.992Z,97297.34
2024-04-30T04:00:30.490Z,97305.50
2024-04-30T04:02:56.952Z,97301.75
2024-04-30T04:05:23.480Z,97298.69
2024-04-30T04:07:51.173Z,97310.78
2024-04-30T04:10:17.736Z,97312.41
2024-04-30T04:13:02.724Z,97314.44
2024-04-30T04:15:29.192Z,97316.34
2024-04-30T04:17:55.762Z,97315.50
2024-04-30T04:20:22.248Z,97312.22
2024-04-30T04:22:49.285Z,97314.44
2024-04-30T04:25:15.762Z,97313.66
2024-04-30T04:27:42.237Z,97319.13
2024-04-30T04:30:08.833Z,97310.88
2024-04-30T04:32:35.426Z,97309.63
2024-04-30T04:35:01.948Z,97304.75
2024-04-30T04:37:28.410Z,97306.25
2024-04-30T04:39:54.955Z,97312.41
2024-04-30T04:42:21.487Z,97315.78
2024-04-30T04:44:47.964Z,97322.50
2024-04-30T04:47:14.433Z,97320.47
2024-04-30T04:49:41.049Z,97321.38
2024-04-30T04:52:07.544Z,97316.75
2024-04-30T04:54:34.137Z,97308.47
2024-04-30T04:57:00.708Z,97312.97
2024-04-30T04:59:27.151Z,97308.06
2024-04-30T05:01:54.605Z,97306.22
2024-04-30T05:04:21.463Z,97302.25
2024-04-30T05:06:50.164Z,97307.56
2024-04-30T05:09:17.014Z,97301.44
2024-04-30T05:11:43.475Z,97305.38
2024-04-30T05:14:09.929Z,97302.13
2024-04-30T05:16:36.492Z,97293.06
2024-04-30T05:19:03.026Z,97307.56
2024-04-30T05:21:29.742Z,97296.78
2024-04-30T05:23:56.214Z,97301.56
2024-04-30T05:26:22.690Z,97299.59
2024-04-30T05:28:49.209Z,97295.78
2024-04-30T05:31:15.687Z,97301.19
2024-04-30T05:33:42.228Z,97296.22
2024-04-30T05:36:08.765Z,97305.47
2024-04-30T05:38:35.231Z,97308.75
2024-04-30T05:41:01.840Z,97312.84
2024-04-30T05:43:28.390Z,97306.19
2024-04-30T05:45:54.874Z,97304.16
2024-04-30T05:48:21.327Z,97295.22
2024-04-30T05:50:47.811Z,97299.81
2024-04-30T05:53:14.331Z,97288.69
2024-04-30T05:55:41.012Z,97304.25
2024-04-30T05:58:07.640Z,97299.66
2024-04-30T06:00:34.168Z,97301.47
2024-04-30T06:03:03.808Z,97295.38
2024-04-30T06:05:30.897Z,97293.75
2024-04-30T06:07:57.445Z,97297.69
2024-04-30T06:10:25.271Z,97295.59
2024-04-30T06:12:52.078Z,97288.88
2024-04-30T06:15:18.627Z,97290.75
2024-04-30T06:17:45.146Z,97282.59
2024-04-30T06:20:11.649Z,97283.03
2024-04-30T06:22:38.148Z,97278.84
2024-04-30T06:25:05.272Z,97278.38
2024-04-30T06:27:31.807Z,97260.34
2024-04-30T06:29:58.310Z,97255.28
2024-04-30T06:32:24.800Z,97252.47
2024-04-30T06:34:52.546Z,97251.31
2024-04-30T06:37:19.079Z,97249.75
2024-04-30T06:39:45.546Z,97248.69
2024-04-30T06:42:11.985Z,97243.94
2024-04-30T06:44:38.461Z,97238.72
2024-04-30T06:47:04.939Z,97230.47
2024-04-30T06:49:31.439Z,97225.56
2024-04-30T06:51:57.924Z,97225.03
2024-04-30T06:54:24.360Z,97228.69
2024-04-30T06:56:50.868Z,97229.03
2024-04-30T06:59:17.344Z,97236.88
2024-04-30T07:01:43.911Z,97234.97
2024-04-30T07:04:11.306Z,97232.28
2024-04-30T07:06:37.878Z,97225.03
2024-04-30T07:09:04.374Z,97219.53
2024-04-30T07:11:30.898Z,97222.63
2024-04-30T07:13:57.384Z,97224.25
2024-04-30T07:16:23.904Z,97215.84
2024-04-30T07:18:50.393Z,97217.34
2024-04-30T07:21:16.869Z,97215.13
2024-04-30T07:23:43.325Z,97209.31
2024-04-30T07:26:09.776Z,97204.59
2024-04-30T07:28:36.261Z,97208.09
2024-04-30T07:31:02.864Z,97199.44
2024-04-30T07:33:29.396Z,97203.00
2024-04-30T07:35:55.957Z,97194.94
2024-04-30T07:38:22.435Z,97194.53
2024-04-30T07:40:48.973Z,97192.44
2024-04-30T07:43:15.468Z,97194.75
2024-04-30T07:45:41.940Z,97194.59
2024-04-30T07:48:08.622Z,97182.94
2024-04-30T07:50:35.149Z,97191.16
2024-04-30T07:53:01.624Z,97197.56
2024-04-30T07:55:28.129Z,97197.19
2024-04-30T07:57:54.595Z,97199.00
2024-04-30T08:00:21.194Z,97192.41
2024-04-30T08:02:47.701Z,97186.41
2024-04-30T08:05:14.207Z,97189.41
2024-04-30T08:07:40.775Z,97190.25
2024-04-30T08:10:07.692Z,97191.66
2024-04-30T08:12:34.145Z,97186.91
2024-04-30T08:15:01.219Z,97194.31
2024-04-30T08:17:27.770Z,97187.97
2024-04-30T08:19:54.381Z,97191.88
2024-04-30T08:22:20.953Z,97187.38
2024-04-30T08:24:47.532Z,97197.16
2024-04-30T08:27:14.064Z,97194.38
2024-04-30T08:29:41.718Z,97197.72
2024-04-30T08:32:08.685Z,97189.00
2024-04-30T08:34:35.257Z,97190.66
2024-04-30T08:37:01.814Z,97190.03
2024-04-30T08:39:28.275Z,97188.13
2024-04-30T08:41:56.696Z,97184.56
2024-04-30T08:44:24.374Z,97184.97
2024-04-30T08:46:52.353Z,97176.50
2024-04-30T08:49:28.624Z,97169.75
2024-04-30T08:52:04.096Z,97165.25
2024-04-30T08:54:33.778Z,97166.78
2024-04-30T08:57:00.336Z,97166.44
2024-04-30T08:59:26.890Z,97164.19
2024-04-30T09:01:54.938Z,97171.34
2024-04-30T09:04:23.594Z,97170.25
2024-04-30T09:06:51.222Z,97155.47
2024-04-30T09:09:17.770Z,97160.75
2024-04-30T09:11:44.409Z,97156.59
2024-04-30T09:14:10.920Z,97147.84
2024-04-30T09:16:48.550Z,97149.69
2024-04-30T09:19:28.498Z,97142.03
2024-04-30T09:22:06.004Z,97147.13
2024-04-30T09:24:32.835Z,97139.47
2024-04-30T09:26:59.302Z,97134.06
2024-04-30T09:29:37.491Z,97132.63
2024-04-30T09:32:05.535Z,97129.28
2024-04-30T09:34:39.440Z,97128.84
2024-04-30T09:37:17.743Z,97125.16
2024-04-30T09:39:47.778Z,97127.09
2024-04-30T09:42:15.670Z,97129.66
2024-04-30T09:44:42.929Z,97124.38
2024-04-30T09:47:10.247Z,97125.13
2024-04-30T09:49:37.461Z,97123.97
2024-04-30T09:52:04.286Z,97125.75
2024-04-30T09:54:34.473Z,97126.47
2024-04-30T09:57:04.092Z,97123.78
2024-04-30T09:59:30.692Z,97127.81
2024-04-30T10:01:59.619Z,97121.00
2024-04-30T10:04:28.026Z,97116.13
2024-04-30T10:06:58.086Z,97113.94
2024-04-30T10:09:24.639Z,97113.66
2024-04-30T10:11:51.118Z,97112.09
2024-04-30T10:14:31.284Z,97116.59
2024-04-30T10:17:01.720Z,97106.78
2024-04-30T10:19:28.896Z,97111.69
2024-04-30T10:21:55.448Z,97109.47
2024-04-30T10:24:23.088Z,97111.78
2024-04-30T10:26:51.445Z,97103.50
2024-04-30T10:29:18.433Z,97105.81
2024-04-30T10:31:48.919Z,97105.47
2024-04-30T10:34:15.928Z,97105.84
2024-04-30T10:36:46.938Z,97099.78
2024-04-30T10:39:24.096Z,97100.53
2024-04-30T10:41:50.569Z,97096.75
2024-04-30T10:44:17.299Z,97098.66
2024-04-30T10:46:44.385Z,97092.97
2024-04-30T10:49:13.154Z,97084.25
2024-04-30T10:51:39.649Z,97081.25
2024-04-30T10:54:06.364Z,97077.50
2024-04-30T10:56:32.835Z,97073.31
2024-04-30T10:59:00.709Z,97072.19
2024-04-30T11:01:28.384Z,97066.50
2024-04-30T11:04:10.279Z,97059.69
2024-04-30T11:06:49.355Z,97057.44
2024-04-30T11:09:16.648Z,97055.50
2024-04-30T11:11:48.465Z,97045.72
2024-04-30T11:14:18.644Z,97043.47
2024-04-30T11:16:48.619Z,97038.56
2024-04-30T11:19:15.859Z,97039.69
2024-04-30T11:21:42.432Z,97033.66
2024-04-30T11:24:10.545Z,97035.91
2024-04-30T11:26:37.335Z,97030.28
2024-04-30T11:29:16.345Z,97021.94
2024-04-30T11:31:50.682Z,97012.47
2024-04-30T11:34:17.241Z,97020.06
2024-04-30T11:36:43.847Z,97025.72
2024-04-30T11:39:13.787Z,97026.84
2024-04-30T11:41:43.604Z,97012.50
2024-04-30T11:44:14.998Z,97012.47
2024-04-30T11:46:41.518Z,97016.66
2024-04-30T11:49:08.062Z,97014.00
2024-04-30T11:51:34.539Z,97009.47
2024-04-30T11:54:01.013Z,96999.63
2024-04-30T11:56:30.574Z,97000.00
2024-04-30T11:58:57.128Z,97002.66
2024-04-30T12:01:23.668Z,96997.38
2024-04-30T12:03:50.760Z,96998.13
2024-04-30T12:06:17.353Z,96996.59
2024-04-30T12:08:43.903Z,96996.94
2024-04-30T12:11:10.676Z,96996.56
2024-04-30T12:13:40.617Z,96996.97
2024-04-30T12:16:07.375Z,96997.31
2024-04-30T12:18:33.958Z,96992.78
2024-04-30T12:21:01.064Z,96987.09
2024-04-30T12:23:27.685Z,96979.53
2024-04-30T12:25:55.462Z,96972.72
2024-04-30T12:28:22.065Z,96969.28
2024-04-30T12:30:48.534Z,96968.53
2024-04-30T12:33:16.930Z,96959.06
2024-04-30T12:35:46.324Z,96954.44
2024-04-30T12:38:14.399Z,96952.97
2024-04-30T12:40:41.776Z,96949.50
2024-04-30T12:43:08.371Z,96947.56
2024-04-30T12:45:34.898Z,96946.38
2024-04-30T12:48:01.425Z,96942.63
2024-04-30T12:50:27.922Z,96938.19
2024-04-30T12:52:54.446Z,96931.41
2024-04-30T12:55:21.007Z,96926.09
2024-04-30T12:57:47.499Z,96928.75
2024-04-30T13:00:15.412Z,96923.00
2024-04-30T13:02:41.947Z,96926.81
2024-04-30T13:05:08.465Z,96920.78
2024-04-30T13:07:35.008Z,96920.75
2024-04-30T13:10:01.568Z,96912.41
2024-04-30T13:12:28.145Z,96914.31
2024-04-30T13:14:54.647Z,96912.06
2024-04-30T13:17:21.158Z,96910.44
2024-04-30T13:19:47.715Z,96912.28
2024-04-30T13:22:14.231Z,96907.72
2024-04-30T13:24:40.701Z,96904.38
2024-04-30T13:27:07.203Z,96898.25
2024-04-30T13:29:34.005Z,96892.59
2024-04-30T13:32:00.680Z,96901.69
2024-04-30T13:34:31.503Z,96894.13
2024-04-30T13:36:58.055Z,96891.19
2024-04-30T13:39:27.281Z,96882.81
2024-04-30T13:41:53.969Z,96886.66
2024-04-30T13:44:20.432Z,96882.81
2024-04-30T13:46:46.903Z,96877.94
2024-04-30T13:49:13.454Z,96882.84
2024-04-30T13:51:40.025Z,96875.16
2024-04-30T13:54:06.660Z,96875.88
2024-04-30T13:56:33.242Z,96874.69
2024-04-30T13:58:59.694Z,96871.28
2024-04-30T14:01:26.229Z,96872.09
2024-04-30T14:03:52.792Z,96863.38
2024-04-30T14:06:22.269Z,96867.91
2024-04-30T14:08:48.712Z,96859.53
2024-04-30T14:11:16.350Z,96863.00
2024-04-30T14:13:43.030Z,96859.19
2024-04-30T14:16:09.676Z,96856.94
2024-04-30T14:18:36.181Z,96862.25
2024-04-30T14:21:02.664Z,96857.69
2024-04-30T14:23:29.437Z,96862.25
2024-04-30T14:25:57.164Z,96859.66
2024-04-30T14:28:25.338Z,96849.91
2024-04-30T14:30:52.566Z,96846.50
2024-04-30T14:33:19.186Z,96844.19
2024-04-30T14:36:04.178Z,96853.69
2024-04-30T14:38:30.635Z,96851.09
2024-04-30T14:40:57.106Z,96848.38
2024-04-30T14:43:23.652Z,96845.72
2024-04-30T14:45:50.136Z,96846.44
2024-04-30T14:48:17.185Z,96848.00
2024-04-30T14:50:43.758Z,96848.31
2024-04-30T14:53:10.214Z,96848.31
2024-04-30T14:55:36.744Z,96847.63
2024-04-30T14:58:03.253Z,96846.84
2024-04-30T15:00:29.758Z,96841.91
2024-04-30T15:02:56.225Z,96843.75
2024-04-30T15:05:22.700Z,96834.34
2024-04-30T15:07:49.260Z,96838.53
2024-04-30T15:10:15.849Z,96836.16
2024-04-30T15:12:42.362Z,96831.28
2024-04-30T15:15:08.943Z,96833.19
2024-04-30T15:17:35.592Z,96830.16
2024-04-30T15:20:02.168Z,96830.22
2024-04-30T15:22:28.697Z,96829.47
2024-04-30T15:24:55.161Z,96821.53
2024-04-30T15:27:21.637Z,96825.31
2024-04-30T15:29:48.089Z,96818.59
2024-04-30T15:32:14.596Z,96821.19
2024-04-30T15:34:42.012Z,96821.97
2024-04-30T15:37:08.758Z,96820.88
2024-04-30T15:39:35.384Z,96813.72
2024-04-30T15:42:01.860Z,96813.25
2024-04-30T15:44:28.322Z,96818.97
2024-04-30T15:46:54.804Z,96816.72
2024-04-30T15:49:21.449Z,96813.66
2024-04-30T15:51:48.035Z,96810.25
2024-04-30T15:54:14.681Z,96803.53
2024-04-30T15:56:50.239Z,96809.53
2024-04-30T15:59:20.997Z,96809.19
2024-04-30T16:01:47.510Z,96802.75
2024-04-30T16:04:14.914Z,96800.84
2024-04-30T16:06:42.156Z,96797.47
2024-04-30T16:09:08.621Z,96792.16
2024-04-30T16:11:35.115Z,96801.22
2024-04-30T16:14:01.596Z,96791.69
2024-04-30T16:16:28.171Z,96791.59
2024-04-30T16:18:54.664Z,96793.09
2024-04-30T16:21:21.133Z,96788.13
2024-04-30T16:23:47.572Z,96782.47
2024-04-30T16:28:44.318Z,96787.31
2024-04-30T16:31:11.471Z,96786.56
2024-04-30T16:33:38.353Z,96780.22
2024-04-30T16:36:05.448Z,96782.13
2024-04-30T16:38:31.952Z,96779.97
2024-04-30T16:40:58.383Z,96772.72
2024-04-30T16:43:24.906Z,96768.19
2024-04-30T16:45:51.371Z,96767.06
2024-04-30T16:48:18.007Z,96769.81
2024-04-30T16:50:44.590Z,96766.44
2024-04-30T16:53:11.047Z,96763.88
2024-04-30T16:55:37.534Z,96768.03
2024-04-30T16:58:05.533Z,96766.19
2024-04-30T17:00:32.120Z,96758.69
2024-04-30T17:02:59.319Z,96748.53
2024-04-30T17:05:27.212Z,96748.56
2024-04-30T17:07:53.648Z,96753.50
2024-04-30T17:10:20.165Z,96753.19
2024-04-30T17:12:46.753Z,96749.00
2024-04-30T17:15:13.279Z,96745.59
2024-04-30T17:17:39.802Z,96745.19
2024-04-30T17:20:07.029Z,96744.06
2024-04-30T17:22:34.133Z,96743.69
2024-04-30T17:25:00.716Z,96736.19
2024-04-30T17:27:28.502Z,96743.38
2024-04-30T17:29:55.343Z,96741.88
2024-04-30T17:32:22.747Z,96744.97
2024-04-30T17:34:49.232Z,96731.38
2024-04-30T17:37:15.864Z,96735.53
2024-04-30T17:39:42.320Z,96736.72
2024-04-30T17:42:10.702Z,96737.09
2024-04-30T17:44:37.776Z,96737.13
2024-04-30T17:47:04.601Z,96729.97
2024-04-30T17:49:31.197Z,96731.47
2024-04-30T17:51:57.674Z,96731.06
2024-04-30T17:54:24.282Z,96733.31
2024-04-30T17:56:50.763Z,96734.41
2024-04-30T17:59:17.231Z,96742.31
2024-04-30T18:01:44.896Z,96734.00
2024-04-30T18:06:39.363Z,96740.25
2024-04-30T18:09:06.635Z,96730.00
2024-04-30T18:11:33.468Z,96732.56
2024-04-30T18:14:00.253Z,96735.16
2024-04-30T18:16:27.297Z,96733.94
2024-04-30T18:18:54.814Z,96728.97
2024-04-30T18:21:23.062Z,96728.16
2024-04-30T18:23:49.593Z,96725.38
2024-04-30T18:26:16.142Z,96720.41
2024-04-30T18:28:46.833Z,96726.03
2024-04-30T18:31:16.951Z,96722.56
2024-04-30T18:33:43.700Z,96721.72
2024-04-30T18:36:12.189Z,96726.06
2024-04-30T18:38:43.305Z,96720.72
2024-04-30T18:41:17.433Z,96724.72
2024-04-30T18:43:51.107Z,96718.53
2024-04-30T18:46:17.567Z,96720.25
2024-04-30T18:48:46.627Z,96724.72
2024-04-30T18:51:13.803Z,96720.75
2024-04-30T18:53:43.447Z,96720.69
2024-04-30T18:56:16.489Z,96720.97
2024-04-30T18:58:43.739Z,96719.03
2024-04-30T19:01:10.398Z,96718.81
2024-04-30T19:03:37.075Z,96717.91
2024-04-30T19:06:11.054Z,96715.25
2024-04-30T19:08:37.811Z,96713.28
2024-04-30T19:11:06.223Z,96724.75
2024-04-30T19:13:33.873Z,96720.56
2024-04-30T19:16:01.516Z,96720.19
2024-04-30T19:18:28.140Z,96720.91
2024-04-30T19:20:54.941Z,96719.75
2024-04-30T19:23:29.378Z,96721.88
2024-04-30T19:25:55.841Z,96718.19
2024-04-30T19:28:23.231Z,96717.72
2024-04-30T19:30:50.306Z,96718.38
2024-04-30T19:33:17.601Z,96721.81
2024-04-30T19:35:44.172Z,96715.22
2024-04-30T19:38:10.815Z,96722.56
2024-04-30T19:40:37.783Z,96725.16
2024-04-30T19:43:05.594Z,96725.44
2024-04-30T19:45:32.505Z,96724.38
2024-04-30T19:47:59.018Z,96719.91
2024-04-30T19:50:25.551Z,96723.03
2024-04-30T19:52:52.051Z,96719.19
2024-04-30T19:55:18.517Z,96719.94
2024-04-30T19:57:45.431Z,96722.97
2024-04-30T20:00:12.219Z,96721.13
2024-04-30T20:02:40.898Z,96712.00
2024-04-30T20:05:08.920Z,96720.84
2024-04-30T20:07:35.703Z,96711.13
2024-04-30T20:10:02.235Z,96712.69
2024-04-30T20:12:28.828Z,96712.38
2024-04-30T20:14:58.337Z,96714.22
2024-04-30T20:17:25.197Z,96709.63
2024-04-30T20:19:51.684Z,96709.69
2024-04-30T20:22:18.155Z,96702.56
2024-04-30T20:24:44.651Z,96700.31
2024-04-30T20:27:11.152Z,96698.72
2024-04-30T20:29:37.639Z,96698.78
2024-04-30T20:32:05.049Z,96694.22
2024-04-30T20:34:31.661Z,96693.72
2024-04-30T20:36:58.201Z,96695.47
2024-04-30T20:39:24.894Z,96692.78
2024-04-30T20:41:51.404Z,96689.47
2024-04-30T20:44:17.846Z,96691.31
2024-04-30T20:46:44.303Z,96689.75
2024-04-30T20:49:10.835Z,96683.56
2024-04-30T20:51:42.897Z,96691.13
2024-04-30T20:54:09.742Z,96675.28
2024-04-30T20:56:36.278Z,96679.00
2024-04-30T20:59:02.749Z,96675.22
2024-04-30T21:01:29.348Z,96680.06
2024-04-30T21:03:56.037Z,96664.03
2024-04-30T21:06:22.561Z,96679.00
2024-04-30T21:08:49.034Z,96669.94
2024-04-30T21:11:15.567Z,96675.50
2024-04-30T21:13:42.584Z,96668.31
2024-04-30T21:16:09.090Z,96672.78
2024-04-30T21:18:36.711Z,96659.94
2024-04-30T21:21:03.970Z,96662.19
2024-04-30T21:23:30.524Z,96656.13
2024-04-30T21:25:57.110Z,96654.97
2024-04-30T21:28:23.632Z,96661.72
2024-04-30T21:30:51.636Z,96659.25
2024-04-30T21:33:20.877Z,96657.59
2024-04-30T21:35:47.887Z,96655.03
2024-04-30T21:38:14.659Z,96649.19
2024-04-30T21:40:41.137Z,96646.47
2024-04-30T21:43:07.627Z,96639.66
2024-04-30T21:45:34.156Z,96646.03
2024-04-30T21:48:00.760Z,96640.31
2024-04-30T21:50:27.235Z,96643.81
2024-04-30T21:52:53.709Z,96635.06
2024-04-30T21:55:20.166Z,96640.56
2024-04-30T21:57:46.667Z,96639.66
2024-04-30T22:00:14.422Z,96635.84
2024-04-30T22:02:41.652Z,96639.09
2024-04-30T22:05:08.206Z,96635.22
2024-04-30T22:07:34.707Z,96632.84
2024-04-30T22:10:01.980Z,96627.28
2024-04-30T22:12:28.548Z,96622.50
2024-04-30T22:14:55.317Z,96619.44
2024-04-30T22:17:21.800Z,96620.13
2024-04-30T22:19:48.274Z,96616.34
2024-04-30T22:22:14.715Z,96608.31
2024-04-30T22:24:41.234Z,96604.22
2024-04-30T22:27:07.802Z,96605.88
2024-04-30T22:29:34.257Z,96605.38
2024-04-30T22:32:00.817Z,96603.03
2024-04-30T22:34:27.371Z,96601.69
2024-04-30T22:36:56.966Z,96594.44
2024-04-30T22:39:24.252Z,96598.75
2024-04-30T22:41:50.737Z,96601.78
2024-04-30T22:44:17.226Z,96606.94
2024-04-30T22:46:43.676Z,96596.81
2024-04-30T22:49:10.195Z,96589.13
2024-04-30T22:51:36.715Z,96583.00
2024-04-30T22:54:03.183Z,96593.44
2024-04-30T22:56:32.991Z,96592.94
2024-04-30T22:59:00.918Z,96587.97
2024-04-30T23:01:27.523Z,96583.91
2024-04-30T23:03:54.119Z,96585.16
2024-04-30T23:06:20.609Z,96574.28
2024-04-30T23:08:47.106Z,96581.31
2024-04-30T23:11:13.646Z,96574.56
2024-04-30T23:13:40.161Z,96575.59
2024-04-30T23:16:06.941Z,96572.88
2024-04-30T23:18:33.586Z,96571.44
2024-04-30T23:21:00.122Z,96573.53
2024-04-30T23:23:26.585Z,96567.38
2024-04-30T23:25:53.042Z,96567.47
2024-04-30T23:28:19.496Z,96563.34
2024-04-30T23:30:46.039Z,96565.28
2024-04-30T23:33:12.515Z,96566.13
2024-04-30T23:35:38.987Z,96566.78
2024-04-30T23:38:05.435Z,96564.50
2024-04-30T23:40:31.935Z,96564.16
2024-04-30T23:42:58.431Z,96556.94
2024-04-30T23:45:24.927Z,96558.00
2024-04-30T23:47:51.845Z,96558.78
2024-04-30T23:50:18.358Z,96553.03
2024-04-30T23:52:44.822Z,96554.31
2024-04-30T23:55:11.289Z,96555.50
2024-04-30T23:57:37.877Z,96552.03
